createdAt,value
2018-12-19T00:00:17.206Z,80.16
2018-12-19T00:00:43.308Z,80.26
2018-12-19T00:01:09.422Z,80.55
2018-12-19T00:01:35.529Z,80.45
2018-12-19T00:02:01.639Z,80.26
2018-12-19T00:02:27.736Z,80.55
2018-12-19T00:02:53.840Z,80.41
2018-12-19T00:03:19.972Z,80.32
2018-12-19T00:03:46.078Z,80.45
2018-12-19T00:04:12.176Z,80.45
2018-12-19T00:04:38.305Z,80.35
2018-12-19T00:05:04.435Z,80.6
2018-12-19T00:05:30.539Z,80.32
2018-12-19T00:05:56.640Z,80.41
2018-12-19T00:06:22.744Z,80.41
2018-12-19T00:06:48.876Z,80.13
2018-12-19T00:07:14.981Z,80.32
2018-12-19T00:07:41.091Z,80.41
2018-12-19T00:08:07.197Z,80.13
2018-12-19T00:08:33.297Z,80.22
2018-12-19T00:09:03.095Z,80.22
2018-12-19T00:09:26.507Z,80.41
2018-12-19T00:09:52.609Z,80.41
2018-12-19T00:10:18.745Z,80.22
2018-12-19T00:10:44.850Z,80.32
2018-12-19T00:11:10.956Z,80.88
2018-12-19T00:11:37.059Z,80.03
2018-12-19T00:12:03.170Z,80.6
2018-12-19T00:12:29.270Z,80.6
2018-12-19T00:12:55.402Z,80.93
2018-12-19T00:13:21.531Z,80.35
2018-12-19T00:13:47.639Z,80.22
2018-12-19T00:14:13.741Z,80.16
2018-12-19T00:14:39.850Z,80.35
2018-12-19T00:15:05.953Z,80.26
2018-12-19T00:15:32.115Z,79.88
2018-12-19T00:15:58.247Z,79.69
2018-12-19T00:16:24.381Z,79.65
2018-12-19T00:16:50.518Z,79.74
2018-12-19T00:17:16.626Z,79.74
2018-12-19T00:17:42.728Z,79.65
2018-12-19T00:18:08.857Z,79.84
2018-12-19T00:18:34.993Z,79.55
2018-12-19T00:19:01.101Z,80.13
2018-12-19T00:19:27.210Z,80.79
2018-12-19T00:19:53.343Z,80.79
2018-12-19T00:20:19.451Z,80.13
2018-12-19T00:20:45.545Z,80.79
2018-12-19T00:21:11.656Z,80.22
2018-12-19T00:21:37.761Z,80.41
2018-12-19T00:22:03.868Z,80.6
2018-12-19T00:22:30.026Z,80.22
2018-12-19T00:22:56.163Z,79.55
2018-12-19T00:23:22.264Z,80.41
2018-12-19T00:23:48.375Z,80.22
2018-12-19T00:24:14.478Z,80.32
2018-12-19T00:24:40.572Z,80.51
2018-12-19T00:25:06.674Z,80.41
2018-12-19T00:25:32.820Z,80.45
2018-12-19T00:25:58.923Z,80.22
2018-12-19T00:26:25.056Z,79.69
2018-12-19T00:26:51.167Z,80.03
2018-12-19T00:27:17.273Z,79.55
2018-12-19T00:27:43.420Z,79.74
2018-12-19T00:28:09.523Z,79.74
2018-12-19T00:28:35.630Z,79.65
2018-12-19T00:29:01.733Z,79.74
2018-12-19T00:29:27.829Z,79.74
2018-12-19T00:29:53.937Z,79.74
2018-12-19T00:30:20.038Z,80.07
2018-12-19T00:30:46.151Z,79.65
2018-12-19T00:31:12.313Z,79.74
2018-12-19T00:31:38.369Z,79.46
2018-12-19T00:32:04.468Z,79.27
2018-12-19T00:32:30.574Z,79.17
2018-12-19T00:32:56.679Z,79.55
2018-12-19T00:33:22.783Z,79.27
2018-12-19T00:33:48.922Z,79.46
2018-12-19T00:34:15.025Z,79.46
2018-12-19T00:34:41.135Z,78.8
2018-12-19T00:35:07.235Z,79.17
2018-12-19T00:35:33.346Z,79.36
2018-12-19T00:35:59.447Z,79.74
2018-12-19T00:36:25.585Z,79.74
2018-12-19T00:36:51.716Z,79.27
2018-12-19T00:37:17.827Z,79.36
2018-12-19T00:37:43.928Z,79.46
2018-12-19T00:38:10.034Z,79.08
2018-12-19T00:38:36.139Z,79.27
2018-12-19T00:39:02.239Z,79.27
2018-12-19T00:39:29.345Z,79.27
2018-12-19T00:39:55.451Z,79.27
2018-12-19T00:40:21.556Z,79.36
2018-12-19T00:40:47.665Z,79.46
2018-12-19T00:41:13.769Z,79.46
2018-12-19T00:41:39.870Z,79.5
2018-12-19T00:42:06.016Z,79.5
2018-12-19T00:42:32.121Z,79.6
2018-12-19T00:42:58.229Z,79.22
2018-12-19T00:43:24.333Z,79.41
2018-12-19T00:43:50.473Z,79.31
2018-12-19T00:44:16.612Z,79.5
2018-12-19T00:44:43.365Z,78.93
2018-12-19T00:45:09.471Z,79.12
2018-12-19T00:45:35.580Z,78.74
2018-12-19T00:46:01.717Z,78.36
2018-12-19T00:46:27.838Z,78.36
2018-12-19T00:46:53.950Z,78.55
2018-12-19T00:47:20.084Z,78.36
2018-12-19T00:47:46.190Z,78.55
2018-12-19T00:48:12.294Z,78.45
2018-12-19T00:48:38.396Z,78.55
2018-12-19T00:49:04.508Z,78.36
2018-12-19T00:49:30.607Z,77.89
2018-12-19T00:49:56.712Z,78.17
2018-12-19T00:50:22.842Z,78.27
2018-12-19T00:50:48.968Z,78.08
2018-12-19T00:51:15.075Z,78.08
2018-12-19T00:51:41.177Z,77.98
2018-12-19T00:52:07.284Z,77.98
2018-12-19T00:52:33.395Z,77.41
2018-12-19T00:52:59.494Z,77.79
2018-12-19T00:53:25.602Z,78.08
2018-12-19T00:53:51.707Z,77.22
2018-12-19T00:54:17.812Z,77.22
2018-12-19T00:54:43.920Z,77.41
2018-12-19T00:55:10.049Z,77.22
2018-12-19T00:55:36.161Z,77.31
2018-12-19T00:56:02.260Z,77.22
2018-12-19T00:56:28.367Z,77.22
2018-12-19T00:56:54.472Z,77.41
2018-12-19T00:57:20.579Z,77.22
2018-12-19T00:57:46.680Z,77.22
2018-12-19T00:58:12.791Z,77.12
2018-12-19T00:58:38.890Z,77.03
2018-12-19T00:59:05.003Z,76.93
2018-12-19T00:59:31.140Z,76.37
2018-12-19T00:59:57.252Z,76.75
2018-12-19T01:00:23.355Z,76.65
2018-12-19T01:00:49.520Z,76.93
2018-12-19T01:01:15.648Z,76.84
2018-12-19T01:01:41.755Z,76.46
2018-12-19T01:02:07.859Z,76.75
2018-12-19T01:02:33.959Z,76.08
2018-12-19T01:03:00.070Z,76.08
2018-12-19T01:03:26.189Z,76.18
2018-12-19T01:03:52.297Z,75.89
2018-12-19T01:04:18.395Z,75.51
2018-12-19T01:04:48.031Z,76.37
2018-12-19T01:05:10.633Z,76.27
2018-12-19T01:05:36.742Z,75.7
2018-12-19T01:06:02.845Z,76.37
2018-12-19T01:06:28.949Z,75.99
2018-12-19T01:06:55.052Z,75.89
2018-12-19T01:07:21.172Z,75.79
2018-12-19T01:07:47.277Z,75.89
2018-12-19T01:08:13.377Z,75.89
2018-12-19T01:08:39.480Z,76.08
2018-12-19T01:09:05.588Z,75.7
2018-12-19T01:09:32.684Z,75.51
2018-12-19T01:09:58.788Z,75.6
2018-12-19T01:10:24.892Z,75.32
2018-12-19T01:10:51.028Z,75.6
2018-12-19T01:11:17.137Z,75.42
2018-12-19T01:11:43.247Z,75.23
2018-12-19T01:12:09.355Z,75.6
2018-12-19T01:12:35.452Z,75.32
2018-12-19T01:13:01.563Z,75.32
2018-12-19T01:13:27.699Z,75.23
2018-12-19T01:13:53.799Z,75.32
2018-12-19T01:14:19.903Z,74.66
2018-12-19T01:14:46.008Z,74.66
2018-12-19T01:15:12.113Z,74.37
2018-12-19T01:15:38.218Z,74.75
2018-12-19T01:16:04.319Z,74.37
2018-12-19T01:16:30.432Z,74.56
2018-12-19T01:16:56.539Z,74.56
2018-12-19T01:17:22.672Z,74.66
2018-12-19T01:17:48.773Z,74.69
2018-12-19T01:18:14.907Z,74.75
2018-12-19T01:18:41.044Z,74.47
2018-12-19T01:19:07.183Z,75.42
2018-12-19T01:19:33.275Z,74.94
2018-12-19T01:19:59.386Z,74.98
2018-12-19T01:20:25.487Z,74.75
2018-12-19T01:20:51.647Z,74.66
2018-12-19T01:21:17.752Z,75.04
2018-12-19T01:21:43.855Z,74.56
2018-12-19T01:22:09.958Z,74.98
2018-12-19T01:22:36.067Z,74.75
2018-12-19T01:23:02.206Z,74.6
2018-12-19T01:23:28.308Z,74.51
2018-12-19T01:23:54.418Z,74.6
2018-12-19T01:24:20.522Z,74.69
2018-12-19T01:24:46.642Z,74.47
2018-12-19T01:25:12.744Z,74.41
2018-12-19T01:25:38.853Z,74.69
2018-12-19T01:26:04.962Z,74.56
2018-12-19T01:26:31.074Z,74.85
2018-12-19T01:26:57.174Z,74.69
2018-12-19T01:27:23.282Z,74.51
2018-12-19T01:27:49.405Z,74.31
2018-12-19T01:28:15.544Z,74.31
2018-12-19T01:28:41.653Z,74.41
2018-12-19T01:29:07.759Z,74.03
2018-12-19T01:29:33.865Z,73.74
2018-12-19T01:29:59.972Z,74.41
2018-12-19T01:30:26.078Z,74.41
2018-12-19T01:30:52.184Z,74.03
2018-12-19T01:31:18.324Z,74.03
2018-12-19T01:31:44.436Z,74.22
2018-12-19T01:32:10.541Z,74.03
2018-12-19T01:32:36.813Z,74.03
2018-12-19T01:33:02.929Z,73.46
2018-12-19T01:33:29.080Z,73.65
2018-12-19T01:33:55.184Z,73.52
2018-12-19T01:34:21.321Z,73.71
2018-12-19T01:34:47.430Z,74.03
2018-12-19T01:35:13.560Z,73.93
2018-12-19T01:35:39.700Z,74.03
2018-12-19T01:36:05.798Z,74.03
2018-12-19T01:36:31.908Z,74.31
2018-12-19T01:36:58.011Z,73.74
2018-12-19T01:37:24.118Z,73.84
2018-12-19T01:37:50.220Z,73.55
2018-12-19T01:38:16.378Z,73.55
2018-12-19T01:38:42.483Z,73.55
2018-12-19T01:39:08.588Z,73.14
2018-12-19T01:39:34.716Z,73.04
2018-12-19T01:40:00.827Z,73.23
2018-12-19T01:40:26.958Z,73.74
2018-12-19T01:40:53.101Z,73.61
2018-12-19T01:41:19.235Z,73.52
2018-12-19T01:41:45.340Z,73.93
2018-12-19T01:42:11.447Z,73.93
2018-12-19T01:42:37.553Z,73.9
2018-12-19T01:43:03.654Z,73.74
2018-12-19T01:43:29.765Z,73.74
2018-12-19T01:43:55.891Z,73.93
2018-12-19T01:44:21.997Z,73.74
2018-12-19T01:44:48.102Z,73.84
2018-12-19T01:45:14.232Z,74.12
2018-12-19T01:45:40.345Z,73.71
2018-12-19T01:46:06.450Z,73.61
2018-12-19T01:46:32.553Z,73.65
2018-12-19T01:46:58.725Z,74.03
2018-12-19T01:47:24.835Z,73.74
2018-12-19T01:47:50.938Z,73.93
2018-12-19T01:48:17.042Z,73.93
2018-12-19T01:48:43.147Z,73.93
2018-12-19T01:49:09.261Z,73.93
2018-12-19T01:49:35.365Z,73.93
2018-12-19T01:50:01.470Z,73.65
2018-12-19T01:50:27.562Z,73.65
2018-12-19T01:50:53.676Z,73.52
2018-12-19T01:51:19.818Z,73.74
2018-12-19T01:51:45.946Z,73.74
2018-12-19T01:52:12.057Z,73.74
2018-12-19T01:52:38.157Z,73.23
2018-12-19T01:53:04.274Z,72.75
2018-12-19T01:53:30.371Z,73.23
2018-12-19T01:53:56.474Z,73.52
2018-12-19T01:54:22.585Z,73.74
2018-12-19T01:54:48.692Z,73.23
2018-12-19T01:55:14.797Z,73.84
2018-12-19T01:55:40.902Z,73.36
2018-12-19T01:56:07.008Z,73.27
2018-12-19T01:56:33.138Z,73.27
2018-12-19T01:56:59.279Z,72.85
2018-12-19T01:57:25.388Z,73.33
2018-12-19T01:57:51.485Z,73.33
2018-12-19T01:58:17.591Z,73.27
2018-12-19T01:58:43.695Z,73.42
2018-12-19T01:59:09.798Z,73.52
2018-12-19T01:59:35.944Z,73.36
2018-12-19T02:00:02.079Z,72.99
2018-12-19T02:00:28.204Z,73.27
2018-12-19T02:00:54.311Z,73.27
2018-12-19T02:01:20.419Z,73.18
2018-12-19T02:01:46.519Z,72.79
2018-12-19T02:02:12.628Z,73.08
2018-12-19T02:02:38.724Z,73.08
2018-12-19T02:03:04.832Z,72.99
2018-12-19T02:03:30.956Z,73.08
2018-12-19T02:03:57.057Z,72.99
2018-12-19T02:04:23.165Z,73.08
2018-12-19T02:04:49.266Z,73.27
2018-12-19T02:05:15.370Z,72.99
2018-12-19T02:05:41.473Z,73.27
2018-12-19T02:06:07.580Z,72.99
2018-12-19T02:06:33.682Z,73.18
2018-12-19T02:06:59.785Z,73.55
2018-12-19T02:07:25.918Z,73.46
2018-12-19T02:07:52.026Z,73.08
2018-12-19T02:08:18.130Z,73.27
2018-12-19T02:08:44.241Z,73.18
2018-12-19T02:09:10.347Z,73.08
2018-12-19T02:09:37.443Z,73.27
2018-12-19T02:10:03.543Z,73.18
2018-12-19T02:10:29.645Z,73.27
2018-12-19T02:10:55.784Z,72.51
2018-12-19T02:11:21.948Z,72.89
2018-12-19T02:11:48.101Z,73.18
2018-12-19T02:12:14.209Z,72.99
2018-12-19T02:12:40.323Z,72.6
2018-12-19T02:13:06.443Z,72.7
2018-12-19T02:13:32.553Z,72.6
2018-12-19T02:13:58.658Z,72.89
2018-12-19T02:14:24.763Z,73.08
2018-12-19T02:14:50.870Z,73.08
2018-12-19T02:15:16.972Z,73.18
2018-12-19T02:15:43.101Z,73.27
2018-12-19T02:16:09.215Z,72.79
2018-12-19T02:16:35.322Z,72.6
2018-12-19T02:17:01.430Z,72.22
2018-12-19T02:17:27.563Z,72.51
2018-12-19T02:17:53.663Z,72.41
2018-12-19T02:18:19.774Z,72.6
2018-12-19T02:18:45.875Z,72.22
2018-12-19T02:19:11.989Z,72.6
2018-12-19T02:19:38.088Z,72.7
2018-12-19T02:20:04.192Z,72.32
2018-12-19T02:20:30.295Z,72.22
2018-12-19T02:20:56.400Z,72.32
2018-12-19T02:21:22.544Z,72.13
2018-12-19T02:21:48.652Z,72.7
2018-12-19T02:22:14.788Z,72.51
2018-12-19T02:22:40.887Z,72.32
2018-12-19T02:23:06.995Z,72.13
2018-12-19T02:23:33.121Z,72.22
2018-12-19T02:23:59.229Z,72.51
2018-12-19T02:24:25.340Z,72.13
2018-12-19T02:24:51.443Z,72.03
2018-12-19T02:25:17.573Z,72.22
2018-12-19T02:25:43.680Z,72.41
2018-12-19T02:26:09.788Z,72.7
2018-12-19T02:26:35.923Z,72.51
2018-12-19T02:27:02.025Z,72.7
2018-12-19T02:27:28.123Z,72.79
2018-12-19T02:27:54.235Z,72.7
2018-12-19T02:28:20.337Z,72.32
2018-12-19T02:28:46.440Z,72.32
2018-12-19T02:29:12.550Z,72.7
2018-12-19T02:29:38.654Z,72.32
2018-12-19T02:30:04.763Z,72.32
2018-12-19T02:30:30.917Z,72.51
2018-12-19T02:30:57.015Z,72.32
2018-12-19T02:31:23.125Z,72.32
2018-12-19T02:31:49.228Z,72.32
2018-12-19T02:32:15.341Z,72.32
2018-12-19T02:32:41.481Z,72.13
2018-12-19T02:33:07.610Z,72.03
2018-12-19T02:33:33.744Z,72.32
2018-12-19T02:33:59.871Z,72.7
2018-12-19T02:34:25.998Z,72.13
2018-12-19T02:34:52.099Z,72.7
2018-12-19T02:35:18.267Z,72.51
2018-12-19T02:35:44.398Z,72.6
2018-12-19T02:36:10.533Z,72.41
2018-12-19T02:36:36.666Z,72.32
2018-12-19T02:37:02.769Z,72.41
2018-12-19T02:37:28.881Z,72.7
2018-12-19T02:37:55.010Z,72.51
2018-12-19T02:38:21.113Z,72.13
2018-12-19T02:38:47.250Z,72.32
2018-12-19T02:39:13.353Z,72.41
2018-12-19T02:39:41.441Z,72.03
2018-12-19T02:40:07.543Z,72.13
2018-12-19T02:40:33.653Z,72.32
2018-12-19T02:40:59.758Z,72.13
2018-12-19T02:41:25.922Z,72.41
2018-12-19T02:41:52.055Z,72.22
2018-12-19T02:42:18.158Z,72.13
2018-12-19T02:42:44.268Z,72.22
2018-12-19T02:43:10.418Z,72.13
2018-12-19T02:43:36.493Z,72.6
2018-12-19T02:44:02.600Z,72.6
2018-12-19T02:44:28.703Z,72.22
2018-12-19T02:44:54.808Z,72.41
2018-12-19T02:45:20.922Z,72.22
2018-12-19T02:45:47.051Z,72.22
2018-12-19T02:46:13.180Z,72.03
2018-12-19T02:46:39.284Z,71.75
2018-12-19T02:47:05.386Z,72.13
2018-12-19T02:47:31.524Z,72.32
2018-12-19T02:47:57.626Z,72.41
2018-12-19T02:48:23.730Z,72.22
2018-12-19T02:48:49.843Z,72.13
2018-12-19T02:49:15.963Z,72.32
2018-12-19T02:49:42.056Z,72.22
2018-12-19T02:50:08.156Z,72.51
2018-12-19T02:50:34.258Z,72.32
2018-12-19T02:51:00.384Z,72.41
2018-12-19T02:51:26.492Z,72.13
2018-12-19T02:51:52.599Z,72.7
2018-12-19T02:52:18.737Z,72.32
2018-12-19T02:52:44.845Z,72.03
2018-12-19T02:53:10.953Z,72.7
2018-12-19T02:53:37.055Z,72.13
2018-12-19T02:54:03.187Z,72.32
2018-12-19T02:54:29.291Z,72.51
2018-12-19T02:54:55.427Z,72.6
2018-12-19T02:55:21.534Z,72.32
2018-12-19T02:55:47.638Z,72.51
2018-12-19T02:56:13.741Z,72.41
2018-12-19T02:56:39.880Z,72.41
2018-12-19T02:57:05.987Z,72.32
2018-12-19T02:57:32.086Z,72.32
2018-12-19T02:57:58.195Z,72.32
2018-12-19T02:58:24.297Z,72.22
2018-12-19T02:58:50.402Z,72.32
2018-12-19T02:59:16.536Z,72.32
2018-12-19T02:59:42.635Z,72.32
2018-12-19T03:00:08.744Z,72.6
2018-12-19T03:00:34.849Z,72.89
2018-12-19T03:01:00.985Z,72.6
2018-12-19T03:01:27.119Z,73.46
2018-12-19T03:01:53.240Z,72.6
2018-12-19T03:02:19.366Z,72.6
2018-12-19T03:02:45.475Z,72.7
2018-12-19T03:03:11.574Z,73.08
2018-12-19T03:03:37.712Z,73.08
2018-12-19T03:04:03.839Z,72.99
2018-12-19T03:04:29.940Z,73.18
2018-12-19T03:04:56.077Z,73.27
2018-12-19T03:05:22.186Z,73.36
2018-12-19T03:05:48.295Z,73.27
2018-12-19T03:06:14.425Z,72.7
2018-12-19T03:06:40.562Z,72.6
2018-12-19T03:07:06.672Z,72.51
2018-12-19T03:07:32.808Z,72.6
2018-12-19T03:07:58.964Z,72.6
2018-12-19T03:08:25.080Z,72.7
2018-12-19T03:08:51.206Z,72.79
2018-12-19T03:09:17.320Z,73.08
2018-12-19T03:09:44.473Z,73.55
2018-12-19T03:10:10.606Z,73.27
2018-12-19T03:10:36.717Z,73.08
2018-12-19T03:11:02.814Z,73.08
2018-12-19T03:11:28.920Z,73.08
2018-12-19T03:11:55.047Z,72.79
2018-12-19T03:12:21.155Z,72.99
2018-12-19T03:12:47.259Z,72.89
2018-12-19T03:13:13.371Z,73.18
2018-12-19T03:13:39.476Z,73.18
2018-12-19T03:14:05.574Z,73.59
2018-12-19T03:14:31.683Z,72.99
2018-12-19T03:14:57.807Z,73.27
2018-12-19T03:15:23.955Z,73.08
2018-12-19T03:15:50.054Z,73.18
2018-12-19T03:16:16.185Z,72.89
2018-12-19T03:16:42.322Z,73.46
2018-12-19T03:17:08.456Z,73.27
2018-12-19T03:17:34.569Z,73.3
2018-12-19T03:18:00.722Z,73.49
2018-12-19T03:18:26.859Z,73.02
2018-12-19T03:18:52.992Z,73.11
2018-12-19T03:19:19.124Z,72.26
2018-12-19T03:19:45.232Z,72.64
2018-12-19T03:20:11.368Z,72.35
2018-12-19T03:20:37.475Z,72.35
2018-12-19T03:21:03.579Z,72.74
2018-12-19T03:21:29.684Z,72.35
2018-12-19T03:21:55.794Z,72.64
2018-12-19T03:22:21.897Z,72.35
2018-12-19T03:22:48.005Z,72.45
2018-12-19T03:23:14.131Z,72.35
2018-12-19T03:23:40.241Z,72.35
2018-12-19T03:24:06.344Z,72.35
2018-12-19T03:24:32.454Z,72.45
2018-12-19T03:24:58.585Z,72.55
2018-12-19T03:25:24.690Z,71.88
2018-12-19T03:25:50.821Z,71.97
2018-12-19T03:26:16.914Z,71.69
2018-12-19T03:26:43.055Z,72.07
2018-12-19T03:27:09.157Z,71.78
2018-12-19T03:27:35.262Z,71.69
2018-12-19T03:28:01.372Z,71.69
2018-12-19T03:28:27.474Z,72.16
2018-12-19T03:28:53.577Z,71.78
2018-12-19T03:29:19.710Z,71.88
2018-12-19T03:29:45.818Z,71.97
2018-12-19T03:30:11.942Z,72.07
2018-12-19T03:30:38.097Z,71.41
2018-12-19T03:31:04.263Z,71.31
2018-12-19T03:31:30.369Z,71.41
2018-12-19T03:31:56.547Z,71.69
2018-12-19T03:32:22.705Z,71.59
2018-12-19T03:32:48.879Z,71.69
2018-12-19T03:33:15.017Z,71.78
2018-12-19T03:33:41.121Z,72.07
2018-12-19T03:34:07.232Z,71.78
2018-12-19T03:34:33.340Z,71.78
2018-12-19T03:34:59.442Z,71.78
2018-12-19T03:35:25.575Z,71.88
2018-12-19T03:35:51.671Z,71.69
2018-12-19T03:36:17.781Z,71.5
2018-12-19T03:36:43.884Z,71.5
2018-12-19T03:37:09.993Z,71.5
2018-12-19T03:37:36.125Z,71.41
2018-12-19T03:38:02.231Z,71.31
2018-12-19T03:38:28.344Z,71.5
2018-12-19T03:38:54.453Z,71.22
2018-12-19T03:39:20.553Z,71.78
2018-12-19T03:39:50.185Z,72.07
2018-12-19T03:40:13.756Z,72.07
2018-12-19T03:40:39.892Z,71.88
2018-12-19T03:41:05.994Z,71.78
2018-12-19T03:41:32.160Z,71.59
2018-12-19T03:41:58.296Z,71.78
2018-12-19T03:42:24.402Z,71.88
2018-12-19T03:42:50.511Z,71.97
2018-12-19T03:43:16.610Z,72.07
2018-12-19T03:43:42.750Z,72.07
2018-12-19T03:44:08.855Z,71.69
2018-12-19T03:44:34.993Z,71.88
2018-12-19T03:45:01.107Z,71.88
2018-12-19T03:45:27.229Z,72.07
2018-12-19T03:45:53.338Z,71.69
2018-12-19T03:46:19.479Z,71.88
2018-12-19T03:46:45.638Z,71.97
2018-12-19T03:47:11.761Z,71.88
2018-12-19T03:47:37.894Z,72.07
2018-12-19T03:48:03.994Z,72.26
2018-12-19T03:48:30.103Z,71.69
2018-12-19T03:48:56.227Z,72.07
2018-12-19T03:49:22.336Z,72.07
2018-12-19T03:49:48.441Z,71.78
2018-12-19T03:50:14.572Z,71.88
2018-12-19T03:50:40.730Z,72.26
2018-12-19T03:51:06.841Z,71.78
2018-12-19T03:51:32.942Z,72.16
2018-12-19T03:51:59.044Z,71.88
2018-12-19T03:52:25.156Z,72.16
2018-12-19T03:52:51.261Z,71.97
2018-12-19T03:53:17.364Z,71.88
2018-12-19T03:53:43.469Z,71.97
2018-12-19T03:54:09.569Z,72.16
2018-12-19T03:54:35.670Z,72.07
2018-12-19T03:55:01.778Z,71.5
2018-12-19T03:55:27.880Z,71.41
2018-12-19T03:55:54.017Z,71.59
2018-12-19T03:56:20.124Z,71.59
2018-12-19T03:56:46.224Z,71.59
2018-12-19T03:57:12.358Z,71.5
2018-12-19T03:57:38.462Z,71.78
2018-12-19T03:58:04.567Z,71.31
2018-12-19T03:58:30.670Z,71.59
2018-12-19T03:58:56.799Z,71.31
2018-12-19T03:59:22.909Z,71.31
2018-12-19T03:59:49.016Z,71.41
2018-12-19T04:00:15.120Z,71.59
2018-12-19T04:00:41.223Z,71.5
2018-12-19T04:01:07.331Z,71.41
2018-12-19T04:01:33.436Z,71.59
2018-12-19T04:01:59.541Z,71.41
2018-12-19T04:02:25.650Z,71.5
2018-12-19T04:02:51.809Z,71.5
2018-12-19T04:03:17.917Z,71.69
2018-12-19T04:03:44.083Z,71.41
2018-12-19T04:04:10.216Z,71.31
2018-12-19T04:04:36.379Z,71.59
2018-12-19T04:05:02.483Z,71.59
2018-12-19T04:05:28.626Z,71.5
2018-12-19T04:05:54.751Z,71.59
2018-12-19T04:06:20.894Z,71.41
2018-12-19T04:06:46.994Z,71.5
2018-12-19T04:07:13.103Z,71.59
2018-12-19T04:07:39.210Z,71.69
2018-12-19T04:08:05.317Z,71.5
2018-12-19T04:08:31.455Z,72.07
2018-12-19T04:08:57.563Z,72.16
2018-12-19T04:09:23.670Z,71.78
2018-12-19T04:09:49.778Z,71.69
2018-12-19T04:10:16.871Z,72.07
2018-12-19T04:10:42.980Z,72.26
2018-12-19T04:11:09.085Z,71.78
2018-12-19T04:11:35.187Z,71.88
2018-12-19T04:12:01.302Z,71.69
2018-12-19T04:12:27.467Z,71.69
2018-12-19T04:12:53.571Z,71.88
2018-12-19T04:13:19.678Z,71.97
2018-12-19T04:13:45.779Z,71.78
2018-12-19T04:14:11.916Z,72.07
2018-12-19T04:14:38.048Z,71.69
2018-12-19T04:15:04.177Z,71.88
2018-12-19T04:15:30.288Z,71.69
2018-12-19T04:15:56.380Z,71.91
2018-12-19T04:16:22.496Z,71.97
2018-12-19T04:16:48.607Z,71.88
2018-12-19T04:17:14.710Z,72.07
2018-12-19T04:17:40.858Z,72.16
2018-12-19T04:18:06.999Z,71.88
2018-12-19T04:18:33.104Z,71.97
2018-12-19T04:18:59.205Z,71.88
2018-12-19T04:19:25.307Z,72.16
2018-12-19T04:19:51.422Z,72.55
2018-12-19T04:20:17.518Z,72.35
2018-12-19T04:20:43.630Z,71.88
2018-12-19T04:21:09.767Z,72.35
2018-12-19T04:21:35.869Z,72.16
2018-12-19T04:22:01.968Z,72.35
2018-12-19T04:22:28.076Z,72.45
2018-12-19T04:22:54.182Z,72.26
2018-12-19T04:23:20.286Z,72.39
2018-12-19T04:23:46.415Z,72.45
2018-12-19T04:24:12.527Z,72.35
2018-12-19T04:24:38.636Z,72.35
2018-12-19T04:25:04.741Z,72.55
2018-12-19T04:25:30.868Z,72.16
2018-12-19T04:25:56.975Z,72.16
2018-12-19T04:26:23.077Z,72.55
2018-12-19T04:26:49.225Z,72.35
2018-12-19T04:27:15.353Z,72.35
2018-12-19T04:27:41.454Z,72.45
2018-12-19T04:28:07.623Z,72.35
2018-12-19T04:28:33.719Z,72.55
2018-12-19T04:28:59.859Z,72.07
2018-12-19T04:29:25.986Z,72.07
2018-12-19T04:29:52.092Z,72.35
2018-12-19T04:30:18.203Z,72.35
2018-12-19T04:30:44.331Z,72.39
2018-12-19T04:31:10.508Z,72.2
2018-12-19T04:31:36.606Z,72.67
2018-12-19T04:32:02.712Z,72.83
2018-12-19T04:32:28.820Z,72.58
2018-12-19T04:32:54.955Z,72.77
2018-12-19T04:33:21.067Z,72.77
2018-12-19T04:33:47.198Z,72.77
2018-12-19T04:34:13.322Z,72.55
2018-12-19T04:34:39.430Z,72.39
2018-12-19T04:35:05.539Z,72.58
2018-12-19T04:35:31.670Z,72.67
2018-12-19T04:35:57.770Z,72.77
2018-12-19T04:36:23.876Z,72.86
2018-12-19T04:36:49.987Z,72.77
2018-12-19T04:37:16.098Z,72.67
2018-12-19T04:37:42.199Z,72.67
2018-12-19T04:38:08.311Z,73.34
2018-12-19T04:38:34.407Z,72.67
2018-12-19T04:39:00.537Z,72.96
2018-12-19T04:39:26.666Z,72.77
2018-12-19T04:39:52.770Z,72.67
2018-12-19T04:40:20.852Z,72.67
2018-12-19T04:40:46.961Z,72.67
2018-12-19T04:41:13.062Z,72.67
2018-12-19T04:41:39.168Z,73.34
2018-12-19T04:42:05.303Z,72.96
2018-12-19T04:42:31.407Z,73.25
2018-12-19T04:42:57.562Z,73.34
2018-12-19T04:43:23.700Z,73.15
2018-12-19T04:43:49.806Z,72.96
2018-12-19T04:44:15.937Z,72.67
2018-12-19T04:44:42.091Z,72.77
2018-12-19T04:45:08.205Z,73.11
2018-12-19T04:45:34.315Z,73.49
2018-12-19T04:46:00.418Z,73.15
2018-12-19T04:46:26.559Z,73.21
2018-12-19T04:46:52.658Z,73.25
2018-12-19T04:47:18.766Z,72.96
2018-12-19T04:47:44.902Z,73.25
2018-12-19T04:48:11.030Z,73.63
2018-12-19T04:48:37.189Z,73.82
2018-12-19T04:49:03.296Z,73.82
2018-12-19T04:49:29.433Z,74.44
2018-12-19T04:49:55.542Z,74.16
2018-12-19T04:50:21.644Z,73.97
2018-12-19T04:50:47.753Z,74.39
2018-12-19T04:51:13.883Z,74.87
2018-12-19T04:51:39.988Z,74.63
2018-12-19T04:52:06.092Z,74.63
2018-12-19T04:52:32.197Z,75.15
2018-12-19T04:52:58.304Z,75.49
2018-12-19T04:53:25.110Z,76.06
2018-12-19T04:53:51.217Z,76.92
2018-12-19T04:54:17.317Z,76.54
2018-12-19T04:54:43.426Z,76.82
2018-12-19T04:55:09.527Z,77.11
2018-12-19T04:55:35.632Z,77.39
2018-12-19T04:56:01.737Z,77.01
2018-12-19T04:56:27.852Z,78.16
2018-12-19T04:56:53.951Z,78.53
2018-12-19T04:57:20.056Z,78.63
2018-12-19T04:57:46.160Z,78.82
2018-12-19T04:58:12.269Z,78.63
2018-12-19T04:58:38.408Z,78.53
2018-12-19T04:59:04.511Z,78.63
2018-12-19T04:59:30.644Z,78.53
2018-12-19T04:59:56.754Z,78.72
2018-12-19T05:00:22.891Z,78.63
2018-12-19T05:00:49.027Z,79.2
2018-12-19T05:01:15.129Z,78.53
2018-12-19T05:01:41.291Z,78.44
2018-12-19T05:02:07.399Z,78.63
2018-12-19T05:02:33.497Z,78.63
2018-12-19T05:02:59.607Z,78.53
2018-12-19T05:03:25.736Z,78.63
2018-12-19T05:03:51.846Z,78.82
2018-12-19T05:04:17.940Z,79.11
2018-12-19T05:04:44.048Z,79.11
2018-12-19T05:05:10.154Z,79.49
2018-12-19T05:05:36.263Z,79.68
2018-12-19T05:06:02.391Z,79.58
2018-12-19T05:06:28.494Z,79.96
2018-12-19T05:06:54.609Z,79.68
2018-12-19T05:07:20.737Z,80.24
2018-12-19T05:07:46.848Z,80.63
2018-12-19T05:08:12.979Z,80.63
2018-12-19T05:08:39.078Z,80.72
2018-12-19T05:09:05.180Z,80.63
2018-12-19T05:09:31.294Z,81.01
2018-12-19T05:09:57.399Z,81.01
2018-12-19T05:10:24.502Z,80.44
2018-12-19T05:10:50.604Z,81.1
2018-12-19T05:11:16.771Z,80.72
2018-12-19T05:11:42.892Z,80.91
2018-12-19T05:12:09.055Z,80.72
2018-12-19T05:12:35.164Z,80.63
2018-12-19T05:13:01.445Z,81.01
2018-12-19T05:13:27.514Z,80.72
2018-12-19T05:13:53.608Z,80.91
2018-12-19T05:14:19.713Z,80.72
2018-12-19T05:14:45.820Z,81.1
2018-12-19T05:15:11.960Z,81.01
2018-12-19T05:15:38.070Z,80.72
2018-12-19T05:16:04.233Z,80.24
2018-12-19T05:16:30.336Z,81.2
2018-12-19T05:16:56.440Z,80.15
2018-12-19T05:17:22.544Z,80.63
2018-12-19T05:17:48.647Z,80.44
2018-12-19T05:18:14.748Z,80.24
2018-12-19T05:18:40.944Z,80.15
2018-12-19T05:19:07.071Z,80.53
2018-12-19T05:19:33.179Z,80.34
2018-12-19T05:19:59.320Z,80.34
2018-12-19T05:20:25.417Z,80.63
2018-12-19T05:20:51.522Z,80.34
2018-12-19T05:21:17.624Z,79.86
2018-12-19T05:21:43.725Z,79.49
2018-12-19T05:22:09.870Z,79.49
2018-12-19T05:22:35.967Z,79.49
2018-12-19T05:23:02.112Z,79.49
2018-12-19T05:23:28.237Z,79.68
2018-12-19T05:23:54.353Z,79.77
2018-12-19T05:24:20.475Z,79.68
2018-12-19T05:24:46.584Z,79.77
2018-12-19T05:25:12.681Z,79.86
2018-12-19T05:25:38.790Z,79.68
2018-12-19T05:26:04.892Z,80.05
2018-12-19T05:26:31.037Z,79.86
2018-12-19T05:26:57.101Z,80.34
2018-12-19T05:27:23.211Z,80.34
2018-12-19T05:27:49.312Z,79.96
2018-12-19T05:28:15.421Z,79.96
2018-12-19T05:28:41.530Z,80.91
2018-12-19T05:29:07.638Z,80.44
2018-12-19T05:29:33.743Z,80.72
2018-12-19T05:29:59.878Z,80.24
2018-12-19T05:30:25.987Z,80.53
2018-12-19T05:30:52.078Z,80.15
2018-12-19T05:31:18.218Z,80.34
2018-12-19T05:31:44.319Z,80.53
2018-12-19T05:32:10.434Z,80.24
2018-12-19T05:32:36.573Z,81.1
2018-12-19T05:33:02.672Z,81.01
2018-12-19T05:33:28.780Z,80.63
2018-12-19T05:33:54.885Z,81.01
2018-12-19T05:34:21.018Z,81.67
2018-12-19T05:34:47.159Z,81.77
2018-12-19T05:35:13.262Z,81.38
2018-12-19T05:35:39.369Z,81.38
2018-12-19T05:36:05.483Z,81.38
2018-12-19T05:36:31.750Z,81.96
2018-12-19T05:36:57.878Z,82.24
2018-12-19T05:37:24.017Z,82.24